createdAt,value
2019-01-18T00:01:53.274Z,1.00
2019-01-18T00:04:24.672Z,0.90
2019-01-18T00:06:56.142Z,0.90
2019-01-18T00:09:27.561Z,0.90
2019-01-18T00:11:58.945Z,0.90
2019-01-18T00:14:30.614Z,0.80
2019-01-18T00:17:02.088Z,0.80
2019-01-18T00:19:33.388Z,0.80
2019-01-18T00:22:04.671Z,0.70
2019-01-18T00:24:36.014Z,0.70
2019-01-18T00:27:07.421Z,0.70
2019-01-18T00:29:38.733Z,0.60
2019-01-18T00:32:10.011Z,0.60
2019-01-18T00:34:41.319Z,0.60
2019-01-18T00:37:12.726Z,0.60
2019-01-18T00:39:44.050Z,0.50
2019-01-18T00:42:15.376Z,0.50
2019-01-18T00:44:46.674Z,0.50
2019-01-18T00:47:17.996Z,0.50
2019-01-18T00:49:49.279Z,0.40
2019-01-18T00:52:20.572Z,0.40
2019-01-18T00:54:51.846Z,0.40
2019-01-18T00:57:23.183Z,0.40
2019-01-18T00:59:54.504Z,0.30
2019-01-18T01:02:25.802Z,0.30
2019-01-18T01:04:57.078Z,0.30
2019-01-18T01:07:28.574Z,0.30
2019-01-18T01:09:59.867Z,0.30
2019-01-18T01:12:31.254Z,0.20
2019-01-18T01:15:09.568Z,0.20
2019-01-18T01:17:41.335Z,0.20
2019-01-18T01:20:16.130Z,0.20
2019-01-18T01:22:47.639Z,0.20
2019-01-18T01:25:18.924Z,0.20
2019-01-18T01:27:50.233Z,0.20
2019-01-18T01:30:24.041Z,0.20
2019-01-18T01:32:55.348Z,0.20
2019-01-18T01:35:26.654Z,0.20
2019-01-18T01:37:57.958Z,0.20
2019-01-18T01:40:29.247Z,0.10
2019-01-18T01:43:00.554Z,0.10
2019-01-18T01:45:31.815Z,0.10
2019-01-18T01:48:03.164Z,0.10
2019-01-18T01:50:34.585Z,0.10
2019-01-18T01:53:05.869Z,0.10
2019-01-18T01:55:37.151Z,0.10
2019-01-18T01:58:08.444Z,0.10
2019-01-18T02:00:39.811Z,0.10
2019-01-18T02:03:11.327Z,0.10
2019-01-18T02:05:42.625Z,0.10
2019-01-18T02:08:13.927Z,0.10
2019-01-18T02:10:45.227Z,0.10
2019-01-18T02:13:16.544Z,0.00
2019-01-18T02:15:47.834Z,0.00
2019-01-18T02:18:19.298Z,0.00
2019-01-18T02:20:51.395Z,0.00
2019-01-18T02:23:22.707Z,0.00
2019-01-18T02:25:53.987Z,0.00
2019-01-18T02:28:25.292Z,0.00
2019-01-18T02:30:56.553Z,0.00
2019-01-18T02:33:27.865Z,-0.10
2019-01-18T02:35:59.135Z,-0.10
2019-01-18T02:38:30.513Z,-0.10
2019-01-18T02:41:01.908Z,-0.10
2019-01-18T02:43:33.190Z,-0.10
2019-01-18T02:46:04.506Z,-0.20
2019-01-18T02:48:35.816Z,-0.20
2019-01-18T02:51:07.122Z,-0.20
2019-01-18T02:53:38.628Z,-0.20
2019-01-18T02:56:09.885Z,-0.20
2019-01-18T02:58:41.238Z,-0.20
2019-01-18T03:01:12.525Z,-0.20
2019-01-18T03:03:45.711Z,-0.20
2019-01-18T03:06:16.999Z,-0.20
2019-01-18T03:08:48.414Z,-0.20
2019-01-18T03:11:19.704Z,-0.20
2019-01-18T03:13:51.030Z,-0.30
2019-01-18T03:16:22.493Z,-0.30
2019-01-18T03:18:53.760Z,-0.30
2019-01-18T03:21:25.219Z,-0.30
2019-01-18T03:23:56.553Z,-0.30
2019-01-18T03:26:27.828Z,-0.30
2019-01-18T03:28:59.398Z,-0.30
2019-01-18T03:31:30.894Z,-0.40
2019-01-18T03:34:02.223Z,-0.40
2019-01-18T03:36:33.610Z,-0.40
2019-01-18T03:39:07.960Z,-0.40
2019-01-18T03:41:39.328Z,-0.40
2019-01-18T03:44:10.633Z,-0.50
2019-01-18T03:46:41.949Z,-0.50
2019-01-18T03:49:13.209Z,-0.50
2019-01-18T03:51:44.948Z,-0.50
2019-01-18T03:54:16.247Z,-0.50
2019-01-18T03:56:47.655Z,-0.60
2019-01-18T03:59:18.916Z,-0.60
2019-01-18T04:01:50.231Z,-0.60
2019-01-18T04:04:21.513Z,-0.70
2019-01-18T04:06:52.863Z,-0.70
2019-01-18T04:12:09.625Z,-0.70
2019-01-18T04:14:41.160Z,-0.80
2019-01-18T04:17:12.548Z,-0.80
2019-01-18T04:19:43.930Z,-0.80
2019-01-18T04:22:15.366Z,-0.90
2019-01-18T04:24:46.749Z,-0.90
2019-01-18T04:27:18.317Z,-0.90
2019-01-18T04:29:49.698Z,-0.90
2019-01-18T04:32:21.003Z,-1.00
2019-01-18T04:34:52.291Z,-1.00
2019-01-18T04:37:23.570Z,-1.00
2019-01-18T04:39:54.955Z,-1.10
2019-01-18T04:42:26.326Z,-1.00
2019-01-18T04:44:57.780Z,-1.10
2019-01-18T04:47:29.069Z,-1.10
2019-01-18T04:50:00.444Z,-1.10
2019-01-18T04:52:31.686Z,-1.20
2019-01-18T04:55:07.119Z,-1.20
2019-01-18T04:57:38.654Z,-1.20
2019-01-18T05:00:23.033Z,-1.20
2019-01-18T05:02:54.461Z,-1.20
2019-01-18T05:05:25.988Z,-1.30
2019-01-18T05:07:57.286Z,-1.30
2019-01-18T05:10:28.614Z,-1.30
2019-01-18T05:13:00.516Z,-1.30
2019-01-18T05:15:31.839Z,-1.40
2019-01-18T05:18:03.206Z,-1.40
2019-01-18T05:20:34.653Z,-1.40
2019-01-18T05:23:06.115Z,-1.40
2019-01-18T05:25:37.440Z,-1.40
2019-01-18T05:28:08.964Z,-1.50
2019-01-18T05:30:47.277Z,-1.50
2019-01-18T05:33:13.638Z,-1.50
2019-01-18T05:35:45.157Z,-1.60
2019-01-18T05:38:16.541Z,-1.60
2019-01-18T05:40:49.387Z,-1.60
2019-01-18T05:43:20.791Z,-1.60
2019-01-18T05:45:52.164Z,-1.60
2019-01-18T05:48:23.513Z,-1.70
2019-01-18T05:50:54.982Z,-1.70
2019-01-18T05:53:26.822Z,-1.70
2019-01-18T05:55:58.131Z,-1.70
2019-01-18T05:58:29.508Z,-1.70
2019-01-18T06:01:02.711Z,-1.80
2019-01-18T06:03:34.019Z,-1.70
2019-01-18T06:06:05.313Z,-1.80
2019-01-18T06:08:36.729Z,-1.80
2019-01-18T06:11:07.998Z,-1.80
2019-01-18T06:13:39.358Z,-1.80
2019-01-18T06:16:10.658Z,-1.90
2019-01-18T06:18:42.056Z,-1.90
2019-01-18T06:21:13.372Z,-1.90
2019-01-18T06:23:44.684Z,-1.90
2019-01-18T06:26:16.029Z,-1.90
2019-01-18T06:28:47.339Z,-1.90
2019-01-18T06:31:18.677Z,-1.90
2019-01-18T06:33:50.052Z,-2.00
2019-01-18T06:36:21.337Z,-2.00
2019-01-18T06:38:52.747Z,-2.00
2019-01-18T06:41:27.681Z,-2.10
2019-01-18T06:43:59.056Z,-2.10
2019-01-18T06:46:30.400Z,-2.10
2019-01-18T06:49:02.209Z,-2.10
2019-01-18T06:51:33.509Z,-2.10
2019-01-18T06:54:04.870Z,-2.20
2019-01-18T06:56:36.180Z,-2.10
2019-01-18T06:59:07.488Z,-2.20
2019-01-18T07:01:38.798Z,-2.20
2019-01-18T07:04:10.150Z,-2.20
2019-01-18T07:06:41.599Z,-2.20
2019-01-18T07:09:12.949Z,-2.20
2019-01-18T07:11:44.338Z,-2.20
2019-01-18T07:14:15.682Z,-2.30
2019-01-18T07:17:05.809Z,-2.30
2019-01-18T07:19:37.261Z,-2.30
2019-01-18T07:22:08.550Z,-2.30
2019-01-18T07:24:39.855Z,-2.30
2019-01-18T07:27:11.171Z,-2.30
2019-01-18T07:29:42.520Z,-2.30
2019-01-18T07:32:13.759Z,-2.30
2019-01-18T07:34:45.069Z,-2.40
2019-01-18T07:37:16.336Z,-2.40
2019-01-18T07:39:47.636Z,-2.40
2019-01-18T07:42:18.975Z,-2.40
2019-01-18T07:44:50.280Z,-2.40
2019-01-18T07:47:21.597Z,-2.40
2019-01-18T07:49:52.912Z,-2.40
2019-01-18T07:52:24.212Z,-2.40
2019-01-18T07:54:55.521Z,-2.40
2019-01-18T07:57:26.804Z,-2.40
2019-01-18T07:59:58.104Z,-2.40
2019-01-18T08:02:29.365Z,-2.40
2019-01-18T08:05:00.734Z,-2.40
2019-01-18T08:07:32.003Z,-2.30
2019-01-18T08:10:08.995Z,-2.30
2019-01-18T08:12:40.753Z,-2.30
2019-01-18T08:15:19.515Z,-2.30
2019-01-18T08:17:50.802Z,-2.20
2019-01-18T08:20:25.125Z,-2.20
2019-01-18T08:22:56.912Z,-2.20
2019-01-18T08:25:28.231Z,-2.20
2019-01-18T08:28:17.762Z,-2.20
2019-01-18T08:30:49.388Z,-2.20
2019-01-18T08:33:20.694Z,-2.20
2019-01-18T08:35:52.150Z,-2.10
2019-01-18T08:38:23.419Z,-2.10
2019-01-18T08:40:54.709Z,-2.10
2019-01-18T08:43:26.059Z,-2.10
2019-01-18T08:45:57.384Z,-2.00
2019-01-18T08:48:28.660Z,-2.00
2019-01-18T08:50:59.962Z,-2.00
2019-01-18T08:53:31.246Z,-2.00
2019-01-18T08:56:03.154Z,-1.90
2019-01-18T08:58:34.492Z,-1.90
2019-01-18T09:01:05.948Z,-1.80
2019-01-18T09:03:37.235Z,-1.80
2019-01-18T09:06:08.542Z,-1.80
2019-01-18T09:08:39.949Z,-1.70
2019-01-18T09:11:11.224Z,-1.60
2019-01-18T09:13:42.545Z,-1.60
2019-01-18T09:16:13.888Z,-1.50
2019-01-18T09:18:45.212Z,-1.50
2019-01-18T09:21:16.532Z,-1.40
2019-01-18T09:23:47.878Z,-1.40
2019-01-18T09:26:19.296Z,-1.30
2019-01-18T09:28:50.574Z,-1.20
2019-01-18T09:31:21.998Z,-1.10
2019-01-18T09:33:53.271Z,-1.10
2019-01-18T09:36:24.633Z,-1.00
2019-01-18T09:38:55.991Z,-0.90
2019-01-18T09:41:27.289Z,-0.90
2019-01-18T09:43:58.559Z,-0.80
2019-01-18T09:46:29.909Z,-0.70
2019-01-18T09:49:01.200Z,-0.70
2019-01-18T09:51:32.529Z,-0.60
2019-01-18T09:54:03.798Z,-0.50
2019-01-18T09:56:35.097Z,-0.40
2019-01-18T09:59:06.634Z,-0.30
2019-01-18T10:01:38.068Z,-0.30
2019-01-18T10:04:09.587Z,-0.20
2019-01-18T10:06:59.278Z,-0.10
2019-01-18T10:09:30.567Z,0.00
2019-01-18T10:12:02.422Z,0.00
2019-01-18T10:14:33.793Z,0.10
2019-01-18T10:17:05.080Z,0.10
2019-01-18T10:19:36.383Z,0.20
2019-01-18T10:22:07.821Z,0.20
2019-01-18T10:24:39.119Z,0.20
2019-01-18T10:27:10.523Z,0.30
2019-01-18T10:29:41.991Z,0.30
2019-01-18T10:32:31.758Z,0.40
2019-01-18T10:35:05.533Z,0.40
2019-01-18T10:37:36.951Z,0.50
2019-01-18T10:40:10.968Z,0.50
2019-01-18T10:42:45.444Z,0.60
2019-01-18T10:45:18.140Z,0.60
2019-01-18T10:47:49.467Z,0.60
2019-01-18T10:50:27.944Z,0.70
2019-01-18T10:52:59.257Z,0.70
2019-01-18T10:55:30.533Z,0.80
2019-01-18T10:58:01.886Z,0.80
2019-01-18T11:00:51.951Z,0.80
2019-01-18T11:03:23.260Z,0.80
2019-01-18T11:05:54.544Z,0.80
2019-01-18T11:08:26.025Z,0.90
2019-01-18T11:10:57.325Z,0.90
2019-01-18T11:13:28.667Z,0.90
2019-01-18T11:15:59.994Z,1.00
2019-01-18T11:18:31.443Z,1.00
2019-01-18T11:21:04.186Z,1.00
2019-01-18T11:23:35.526Z,1.10
2019-01-18T11:26:06.798Z,1.10
2019-01-18T11:28:38.130Z,1.20
2019-01-18T11:31:09.481Z,1.20
2019-01-18T11:33:40.869Z,1.20
2019-01-18T11:36:12.266Z,1.30
2019-01-18T11:38:46.509Z,1.30
2019-01-18T11:41:17.807Z,1.40
2019-01-18T11:43:49.220Z,1.40
2019-01-18T11:46:20.509Z,1.50
2019-01-18T11:48:51.811Z,1.60
2019-01-18T11:51:23.198Z,1.60
2019-01-18T11:53:54.492Z,1.70
2019-01-18T11:56:25.788Z,1.80
2019-01-18T11:58:57.091Z,1.80
2019-01-18T12:01:28.448Z,1.80
2019-01-18T12:03:59.771Z,1.90
2019-01-18T12:06:31.173Z,2.00
2019-01-18T12:09:05.404Z,2.00
2019-01-18T12:11:38.694Z,2.10
2019-01-18T12:14:10.257Z,2.10
2019-01-18T12:16:41.569Z,2.20
2019-01-18T12:19:12.896Z,2.30
2019-01-18T12:21:44.221Z,2.30
2019-01-18T12:24:15.535Z,2.30
2019-01-18T12:26:46.810Z,2.40
2019-01-18T12:29:18.516Z,2.50
2019-01-18T12:31:50.093Z,2.50
2019-01-18T12:34:21.432Z,2.60
2019-01-18T12:36:58.582Z,2.60
2019-01-18T12:39:26.171Z,2.70
2019-01-18T12:41:57.581Z,2.70
2019-01-18T12:44:29.158Z,2.80
2019-01-18T12:47:00.438Z,2.80
2019-01-18T12:49:31.900Z,2.90
2019-01-18T12:52:03.202Z,2.90
2019-01-18T12:54:34.600Z,2.90
2019-01-18T12:57:05.880Z,2.90
2019-01-18T12:59:37.194Z,2.90
2019-01-18T13:02:08.503Z,3.00
2019-01-18T13:04:39.865Z,3.00
2019-01-18T13:07:16.410Z,3.10
2019-01-18T13:09:47.828Z,3.00
2019-01-18T13:12:19.231Z,3.10
2019-01-18T13:14:50.539Z,3.10
2019-01-18T13:17:21.833Z,3.10
2019-01-18T13:19:53.157Z,3.10
2019-01-18T13:22:26.182Z,3.10
2019-01-18T13:24:57.610Z,3.10
2019-01-18T13:27:28.979Z,3.10
2019-01-18T13:30:00.310Z,3.10
2019-01-18T13:32:32.468Z,3.10
2019-01-18T13:35:06.158Z,3.00
2019-01-18T13:37:37.448Z,3.00
2019-01-18T13:40:19.116Z,3.00
2019-01-18T13:42:50.800Z,2.90
2019-01-18T13:45:24.390Z,2.90
2019-01-18T13:47:55.272Z,2.90
2019-01-18T13:50:26.700Z,2.90
2019-01-18T13:52:58.158Z,2.80
2019-01-18T13:55:29.697Z,2.90
2019-01-18T13:58:01.036Z,2.80
2019-01-18T14:00:32.389Z,2.80
2019-01-18T14:03:03.709Z,2.80
2019-01-18T14:05:35.068Z,2.80
2019-01-18T14:08:06.334Z,2.80
2019-01-18T14:10:37.672Z,2.80
2019-01-18T14:13:08.975Z,2.80
2019-01-18T14:15:40.302Z,2.80
2019-01-18T14:18:11.572Z,2.80
2019-01-18T14:20:42.877Z,2.80
2019-01-18T14:23:14.189Z,2.80
2019-01-18T14:25:45.879Z,2.80
2019-01-18T14:28:17.219Z,2.70
2019-01-18T14:30:48.550Z,2.70
2019-01-18T14:33:20.251Z,2.60
2019-01-18T14:35:51.917Z,2.60
2019-01-18T14:38:25.168Z,2.50
2019-01-18T14:40:56.483Z,2.40
2019-01-18T14:43:27.911Z,2.40
2019-01-18T14:45:59.241Z,2.40
2019-01-18T14:48:30.668Z,2.30
2019-01-18T14:51:02.013Z,2.20
2019-01-18T14:53:34.242Z,2.20
2019-01-18T14:56:06.065Z,2.10
2019-01-18T14:58:37.414Z,2.10
2019-01-18T15:01:08.794Z,2.00
2019-01-18T15:03:40.203Z,2.00
2019-01-18T15:06:11.619Z,2.00
2019-01-18T15:08:42.969Z,1.90
2019-01-18T15:11:14.234Z,1.90
2019-01-18T15:13:45.589Z,1.80
2019-01-18T15:16:16.857Z,1.80
2019-01-18T15:18:48.175Z,1.70
2019-01-18T15:21:19.509Z,1.70
2019-01-18T15:23:51.440Z,1.60
2019-01-18T15:26:22.748Z,1.60
2019-01-18T15:28:54.046Z,1.60
2019-01-18T15:31:25.380Z,1.50
2019-01-18T15:33:56.753Z,1.50
2019-01-18T15:36:28.068Z,1.40
2019-01-18T15:38:59.528Z,1.40
2019-01-18T15:41:30.808Z,1.40
2019-01-18T15:44:02.119Z,1.40
2019-01-18T15:46:33.428Z,1.40
2019-01-18T15:49:04.727Z,1.30
2019-01-18T15:51:37.848Z,1.30
2019-01-18T15:54:09.175Z,1.30
2019-01-18T15:56:40.423Z,1.30
2019-01-18T15:59:11.726Z,1.20
2019-01-18T16:01:43.061Z,1.20
2019-01-18T16:04:14.352Z,1.10
2019-01-18T16:06:45.635Z,1.10
2019-01-18T16:09:17.080Z,1.00
2019-01-18T16:11:48.442Z,1.00
2019-01-18T16:14:19.730Z,1.00
2019-01-18T16:16:51.045Z,1.00
2019-01-18T16:19:22.342Z,0.90
2019-01-18T16:21:53.628Z,0.90
2019-01-18T16:24:24.936Z,0.90
2019-01-18T16:26:56.250Z,1.00
2019-01-18T16:29:27.572Z,1.00
2019-01-18T16:31:58.853Z,1.00
2019-01-18T16:34:32.759Z,1.00
2019-01-18T16:37:04.069Z,1.00
2019-01-18T16:39:35.562Z,0.90
2019-01-18T16:42:07.033Z,0.90
2019-01-18T16:44:38.346Z,0.90
2019-01-18T16:47:09.627Z,0.80
2019-01-18T16:49:40.936Z,0.80
2019-01-18T16:52:13.783Z,0.80
2019-01-18T16:54:45.098Z,0.80
2019-01-18T16:57:16.510Z,0.70
2019-01-18T16:59:47.852Z,0.80
2019-01-18T17:02:19.603Z,0.70
2019-01-18T17:04:50.894Z,0.70
2019-01-18T17:07:22.195Z,0.70
2019-01-18T17:09:54.199Z,0.70
2019-01-18T17:12:25.538Z,0.70
2019-01-18T17:14:56.952Z,0.70
2019-01-18T17:17:28.288Z,0.70
2019-01-18T17:19:59.629Z,0.70
2019-01-18T17:22:30.910Z,0.70
2019-01-18T17:25:04.104Z,0.70
2019-01-18T17:27:35.406Z,0.70
2019-01-18T17:30:17.280Z,0.60
2019-01-18T17:32:48.563Z,0.60
2019-01-18T17:35:28.612Z,0.60
2019-01-18T17:38:17.358Z,0.50
2019-01-18T17:40:54.452Z,0.60
2019-01-18T17:43:43.096Z,0.50
2019-01-18T17:46:23.655Z,0.50
2019-01-18T17:49:34.304Z,0.50
2019-01-18T17:52:26.178Z,0.50
2019-01-18T17:55:03.198Z,0.50
2019-01-18T17:58:04.664Z,0.50
2019-01-18T18:00:47.745Z,0.40
2019-01-18T18:03:51.766Z,0.40
2019-01-18T18:06:45.422Z,0.50
2019-01-18T18:09:34.419Z,0.50
2019-01-18T18:12:40.238Z,0.40
2019-01-18T18:15:38.457Z,0.40
2019-01-18T18:18:35.375Z,0.40
2019-01-18T18:21:21.196Z,0.40
2019-01-18T18:24:01.012Z,0.40
2019-01-18T18:27:05.503Z,0.40
2019-01-18T18:29:45.246Z,0.30
2019-01-18T18:32:47.974Z,0.30
2019-01-18T18:35:51.013Z,0.30
2019-01-18T18:38:39.679Z,0.30
2019-01-18T18:41:56.593Z,0.30
2019-01-18T18:45:07.131Z,0.30
2019-01-18T18:48:10.865Z,0.30
2019-01-18T18:51:17.063Z,0.20
2019-01-18T18:54:37.993Z,0.20
2019-01-18T18:57:49.812Z,0.20
2019-01-18T19:01:00.559Z,0.20
2019-01-18T19:03:57.462Z,0.20
2019-01-18T19:06:57.526Z,0.20
2019-01-18T19:09:57.490Z,0.20
2019-01-18T19:12:40.424Z,0.20
2019-01-18T19:15:49.710Z,0.20
2019-01-18T19:18:45.457Z,0.30
2019-01-18T19:21:40.564Z,0.30
2019-01-18T19:24:51.193Z,0.30
2019-01-18T19:28:09.247Z,0.30
2019-01-18T19:31:07.020Z,0.30
2019-01-18T19:34:04.490Z,0.30
2019-01-18T19:36:43.580Z,0.30
2019-01-18T19:39:40.157Z,0.30
2019-01-18T19:42:41.340Z,0.30
2019-01-18T19:45:24.120Z,0.30
2019-01-18T19:48:06.631Z,0.30
2019-01-18T19:50:52.522Z,0.30
2019-01-18T19:53:50.598Z,0.30
2019-01-18T19:56:44.960Z,0.30
2019-01-18T19:59:41.256Z,0.30
2019-01-18T20:02:24.138Z,0.30
2019-01-18T20:05:40.182Z,0.30
2019-01-18T20:08:23.131Z,0.30
2019-01-18T20:11:08.539Z,0.30
2019-01-18T20:13:54.227Z,0.30
2019-01-18T20:17:09.280Z,0.30
2019-01-18T20:19:49.027Z,0.30
2019-01-18T20:22:29.030Z,0.30
2019-01-18T20:25:33.042Z,0.30
2019-01-18T20:28:25.645Z,0.30
2019-01-18T20:31:14.812Z,0.30
2019-01-18T20:34:05.698Z,0.30
2019-01-18T20:36:57.884Z,0.30
2019-01-18T20:39:56.813Z,0.30
2019-01-18T20:43:05.713Z,0.30
2019-01-18T20:45:48.387Z,0.30
2019-01-18T20:48:49.481Z,0.30
2019-01-18T20:51:29.455Z,0.30
2019-01-18T20:54:28.657Z,0.30
2019-01-18T20:57:43.521Z,0.20
2019-01-18T21:00:35.300Z,0.20
2019-01-18T21:03:14.995Z,0.20
2019-01-18T21:06:24.873Z,0.20
2019-01-18T21:09:35.529Z,0.20
2019-01-18T21:12:28.051Z,0.20
2019-01-18T21:15:17.272Z,0.10
2019-01-18T21:18:03.413Z,0.10
2019-01-18T21:20:52.700Z,0.10
2019-01-18T21:23:34.962Z,0.10
2019-01-18T21:26:23.849Z,0.10
2019-01-18T21:29:09.455Z,0.10
2019-01-18T21:31:52.429Z,0.20
2019-01-18T21:34:54.975Z,0.10
2019-01-18T21:38:05.008Z,0.10
2019-01-18T21:40:52.002Z,0.10
2019-01-18T21:43:55.932Z,0.10
2019-01-18T21:46:38.623Z,0.10
2019-01-18T21:49:24.484Z,0.10
2019-01-18T21:52:34.085Z,0.10
2019-01-18T21:55:17.465Z,0.20
2019-01-18T21:58:03.490Z,0.10
2019-01-18T22:00:56.022Z,0.20
2019-01-18T22:03:56.862Z,0.20
2019-01-18T22:06:42.537Z,0.20
2019-01-18T22:09:25.561Z,0.20
2019-01-18T22:12:08.941Z,0.20
2019-01-18T22:15:11.911Z,0.20
2019-01-18T22:18:01.223Z,0.30
2019-01-18T22:20:44.008Z,0.30
2019-01-18T22:23:27.123Z,0.30
2019-01-18T22:26:33.887Z,0.20
2019-01-18T22:29:32.757Z,0.30
2019-01-18T22:32:24.928Z,0.30
2019-01-18T22:35:11.158Z,0.30
2019-01-18T22:37:57.172Z,0.30
2019-01-18T22:40:39.927Z,0.30
2019-01-18T22:43:47.429Z,0.30
2019-01-18T22:46:50.565Z,0.30
2019-01-18T22:49:43.872Z,0.30
2019-01-18T22:52:25.249Z,0.30
2019-01-18T22:55:23.410Z,0.30
2019-01-18T22:58:21.282Z,0.30
2019-01-18T23:01:16.606Z,0.30
2019-01-18T23:04:22.528Z,0.30
2019-01-18T23:07:02.443Z,0.30
2019-01-18T23:10:09.798Z,0.20
2019-01-18T23:12:55.733Z,0.20
2019-01-18T23:16:15.536Z,0.20
2019-01-18T23:18:58.381Z,0.20
2019-01-18T23:21:44.144Z,0.20
2019-01-18T23:24:27.299Z,0.20
2019-01-18T23:27:25.225Z,0.20
2019-01-18T23:30:07.926Z,0.20
2019-01-18T23:33:04.586Z,0.20
2019-01-18T23:36:05.264Z,0.20
2019-01-18T23:39:05.881Z,0.20
2019-01-18T23:42:00.927Z,0.20
2019-01-18T23:44:52.742Z,0.20
2019-01-18T23:47:54.059Z,0.20
2019-01-18T23:50:40.133Z,0.20
2019-01-18T23:53:35.141Z,0.20
2019-01-18T23:56:20.755Z,0.20
2019-01-18T23:59:03.562Z,0.20
